createdAt,value
2023-04-21T00:01:32.110Z,6.43
2023-04-21T00:04:13.854Z,6.37
2023-04-21T00:06:47.153Z,6.26
2023-04-21T00:09:30.509Z,6.26
2023-04-21T00:12:10.769Z,6.28
2023-04-21T00:14:50.828Z,6.40
2023-04-21T00:17:26.491Z,6.24
2023-04-21T00:20:05.112Z,6.15
2023-04-21T00:22:42.772Z,6.09
2023-04-21T00:25:15.024Z,6.09
2023-04-21T00:27:52.110Z,6.14
2023-04-21T00:30:29.732Z,6.02
2023-04-21T00:33:06.599Z,6.05
2023-04-21T00:35:47.776Z,5.94
2023-04-21T00:38:28.026Z,5.95
2023-04-21T00:41:11.955Z,5.84
2023-04-21T00:44:08.210Z,5.86
2023-04-21T00:46:49.068Z,5.89
2023-04-21T00:49:21.078Z,5.81
2023-04-21T00:52:03.703Z,5.75
2023-04-21T00:54:42.550Z,5.65
2023-04-21T00:57:20.642Z,5.81
2023-04-21T00:59:55.950Z,5.91
2023-04-21T01:02:33.659Z,5.74
2023-04-21T01:05:12.558Z,5.72
2023-04-21T01:07:42.910Z,5.70
2023-04-21T01:10:17.018Z,5.67
2023-04-21T01:12:58.592Z,5.61
2023-04-21T01:15:31.484Z,5.56
2023-04-21T01:18:11.939Z,5.57
2023-04-21T01:20:50.082Z,5.58
2023-04-21T01:23:31.145Z,5.59
2023-04-21T01:26:08.875Z,5.41
2023-04-21T01:28:54.645Z,5.46
2023-04-21T01:31:30.821Z,5.36
2023-04-21T01:34:06.160Z,5.29
2023-04-21T01:36:46.586Z,5.25
2023-04-21T01:39:21.690Z,5.36
2023-04-21T01:41:59.858Z,5.40
2023-04-21T01:44:35.824Z,5.40
2023-04-21T01:47:11.703Z,5.36
2023-04-21T01:49:47.996Z,5.31
2023-04-21T01:52:21.148Z,5.25
2023-04-21T01:54:51.156Z,5.33
2023-04-21T01:57:23.522Z,5.31
2023-04-21T02:00:02.965Z,5.15
2023-04-21T02:02:38.826Z,5.11
2023-04-21T02:05:19.796Z,5.10
2023-04-21T02:07:58.046Z,4.91
2023-04-21T02:10:38.968Z,4.97
2023-04-21T02:13:13.952Z,4.84
2023-04-21T02:15:53.014Z,4.80
2023-04-21T02:18:35.289Z,4.81
2023-04-21T02:21:19.837Z,4.89
2023-04-21T02:23:54.729Z,4.89
2023-04-21T02:26:24.901Z,4.89
2023-04-21T02:28:59.473Z,4.93
2023-04-21T02:31:57.375Z,4.94
2023-04-21T02:34:44.428Z,4.81
2023-04-21T02:37:19.742Z,4.77
2023-04-21T02:40:00.808Z,4.77
2023-04-21T02:42:41.326Z,4.75
2023-04-21T02:45:21.129Z,4.84
2023-04-21T02:48:01.720Z,4.84
2023-04-21T02:50:40.144Z,4.77
2023-04-21T02:53:26.943Z,4.70
2023-04-21T02:56:04.735Z,4.56
2023-04-21T02:58:52.045Z,4.48
2023-04-21T03:01:30.298Z,4.42
2023-04-21T03:04:13.054Z,4.38
2023-04-21T03:06:56.685Z,4.35
2023-04-21T03:09:29.286Z,4.40
2023-04-21T03:12:05.513Z,4.46
2023-04-21T03:14:42.304Z,4.52
2023-04-21T03:17:19.558Z,4.49
2023-04-21T03:20:04.608Z,4.54
2023-04-21T03:22:39.211Z,4.50
2023-04-21T03:25:21.954Z,4.75
2023-04-21T03:28:02.543Z,4.63
2023-04-21T03:30:46.628Z,4.75
2023-04-21T03:33:27.864Z,4.70
2023-04-21T03:36:08.379Z,4.63
2023-04-21T03:38:54.016Z,4.64
2023-04-21T03:41:33.684Z,4.54
2023-04-21T03:44:12.958Z,4.63
2023-04-21T03:46:57.968Z,4.50
2023-04-21T03:49:36.742Z,4.66
2023-04-21T03:52:18.177Z,4.55
2023-04-21T03:55:03.156Z,4.52
2023-04-21T03:57:38.471Z,4.55
2023-04-21T04:00:23.300Z,4.61
2023-04-21T04:03:10.696Z,4.60
2023-04-21T04:05:48.784Z,4.51
2023-04-21T04:08:35.962Z,4.62
2023-04-21T04:11:08.419Z,4.74
2023-04-21T04:13:48.331Z,4.70
2023-04-21T04:16:29.248Z,4.76
2023-04-21T04:19:12.827Z,4.89
2023-04-21T04:21:55.127Z,4.96
2023-04-21T04:24:38.450Z,5.07
2023-04-21T04:27:20.568Z,5.07
2023-04-21T04:30:01.753Z,5.12
2023-04-21T04:32:47.417Z,5.27
2023-04-21T04:35:29.523Z,5.18
2023-04-21T04:38:14.919Z,5.22
2023-04-21T04:41:04.176Z,5.31
2023-04-21T04:43:44.982Z,5.47
2023-04-21T04:46:25.805Z,5.54
2023-04-21T04:49:04.001Z,5.56
2023-04-21T04:51:44.640Z,5.71
2023-04-21T04:54:24.823Z,5.86
2023-04-21T04:57:11.138Z,6.21
2023-04-21T04:59:48.869Z,6.62
2023-04-21T05:02:27.414Z,6.87
2023-04-21T05:05:05.087Z,7.12
2023-04-21T05:07:45.951Z,7.49
2023-04-21T05:10:32.830Z,7.67
2023-04-21T05:13:10.981Z,8.04
2023-04-21T05:15:46.836Z,8.39
2023-04-21T05:18:26.539Z,8.82
2023-04-21T05:21:07.562Z,9.17
2023-04-21T05:23:45.397Z,9.56
2023-04-21T05:26:21.492Z,9.90
2023-04-21T05:29:00.512Z,10.32
2023-04-21T05:31:35.011Z,10.75
2023-04-21T05:34:10.509Z,11.06
2023-04-21T05:36:49.107Z,11.50
2023-04-21T05:39:30.001Z,11.78
2023-04-21T05:42:08.004Z,12.13
2023-04-21T05:44:46.527Z,12.49
2023-04-21T05:47:27.339Z,12.95
2023-04-21T05:50:05.836Z,13.28
2023-04-21T05:52:44.170Z,13.48
2023-04-21T05:55:17.747Z,13.88
2023-04-21T05:57:56.075Z,14.07
2023-04-21T06:00:42.472Z,14.41
2023-04-21T06:03:20.359Z,14.57
2023-04-21T06:05:57.557Z,14.77
2023-04-21T06:08:36.283Z,14.96
2023-04-21T06:11:16.892Z,15.10
2023-04-21T06:13:56.588Z,15.38
2023-04-21T06:16:34.871Z,15.40
2023-04-21T06:19:18.082Z,15.51
2023-04-21T06:22:01.949Z,15.91
2023-04-21T06:24:40.866Z,15.87
2023-04-21T06:27:25.230Z,15.90
2023-04-21T06:30:00.618Z,16.08
2023-04-21T06:32:36.266Z,16.51
2023-04-21T06:35:19.009Z,16.76
2023-04-21T06:37:51.666Z,17.06
2023-04-21T06:40:29.643Z,17.04
2023-04-21T06:43:08.238Z,17.31
2023-04-21T06:45:41.393Z,17.12
2023-04-21T06:48:24.574Z,17.50
2023-04-21T06:51:02.720Z,17.26
2023-04-21T06:53:39.626Z,17.17
2023-04-21T06:56:19.827Z,17.41
2023-04-21T06:59:03.850Z,17.36
2023-04-21T07:01:39.662Z,17.30
2023-04-21T07:04:24.212Z,17.30
2023-04-21T07:07:03.289Z,17.17
2023-04-21T07:09:38.729Z,17.18
2023-04-21T07:12:19.353Z,17.16
2023-04-21T07:14:55.060Z,17.17
2023-04-21T07:17:33.984Z,17.58
2023-04-21T07:20:09.936Z,17.60
2023-04-21T07:22:43.619Z,18.01
2023-04-21T07:25:19.518Z,18.36
2023-04-21T07:27:58.150Z,18.33
2023-04-21T07:30:34.061Z,18.24
2023-04-21T07:33:14.809Z,18.83
2023-04-21T07:35:53.036Z,18.87
2023-04-21T07:38:34.868Z,18.87
2023-04-21T07:41:12.851Z,19.25
2023-04-21T07:43:44.576Z,18.95
2023-04-21T07:46:26.018Z,18.73
2023-04-21T07:49:04.465Z,18.71
2023-04-21T07:51:42.704Z,19.23
2023-04-21T07:54:23.501Z,18.96
2023-04-21T07:57:02.173Z,18.24
2023-04-21T07:59:39.971Z,18.79
2023-04-21T08:02:15.606Z,18.83
2023-04-21T08:04:48.605Z,19.16
2023-04-21T08:07:30.186Z,19.09
2023-04-21T08:10:07.482Z,19.37
2023-04-21T08:12:48.050Z,19.23
2023-04-21T08:15:31.776Z,19.39
2023-04-21T08:18:12.517Z,19.19
2023-04-21T08:20:54.806Z,19.23
2023-04-21T08:23:35.497Z,19.14
2023-04-21T08:26:13.789Z,19.29
2023-04-21T08:28:48.822Z,19.50
2023-04-21T08:31:32.169Z,19.64
2023-04-21T08:34:10.223Z,19.07
2023-04-21T08:36:52.758Z,19.57
2023-04-21T08:39:41.489Z,19.50
2023-04-21T08:42:13.148Z,19.35
2023-04-21T08:44:51.497Z,19.42
2023-04-21T08:47:27.377Z,19.11
2023-04-21T08:50:00.234Z,19.27
2023-04-21T08:52:41.679Z,19.40
2023-04-21T08:55:15.709Z,19.12
2023-04-21T08:57:48.723Z,19.03
2023-04-21T09:00:26.890Z,19.33
2023-04-21T09:03:10.746Z,19.69
2023-04-21T09:06:07.973Z,19.57
2023-04-21T09:08:45.299Z,19.70
2023-04-21T09:11:32.915Z,19.49
2023-04-21T09:14:06.561Z,19.64
2023-04-21T09:17:02.881Z,19.89
2023-04-21T09:19:42.502Z,20.00
2023-04-21T09:22:20.734Z,19.42
2023-04-21T09:25:03.681Z,19.74
2023-04-21T09:27:47.866Z,20.32
2023-04-21T09:30:29.188Z,19.71
2023-04-21T09:33:20.255Z,19.49
2023-04-21T09:36:21.558Z,19.15
2023-04-21T09:39:38.218Z,19.32
2023-04-21T09:42:15.775Z,20.17
2023-04-21T09:44:58.147Z,20.25
2023-04-21T09:47:52.365Z,21.08
2023-04-21T09:50:54.228Z,21.11
2023-04-21T09:53:22.508Z,20.46
2023-04-21T09:56:02.692Z,20.58
2023-04-21T09:59:04.684Z,19.99
2023-04-21T10:01:39.268Z,19.64
2023-04-21T10:04:15.752Z,19.63
2023-04-21T10:06:49.878Z,20.16
2023-04-21T10:09:35.239Z,20.32
2023-04-21T10:12:14.507Z,19.60
2023-04-21T10:14:52.499Z,19.82
2023-04-21T10:17:32.239Z,20.67
2023-04-21T10:20:13.437Z,21.12
2023-04-21T10:22:46.445Z,21.04
2023-04-21T10:25:24.862Z,20.45
2023-04-21T10:28:05.667Z,19.81
2023-04-21T10:30:46.645Z,19.73
2023-04-21T10:33:23.877Z,20.08
2023-04-21T10:36:14.245Z,19.88
2023-04-21T10:38:50.388Z,20.06
2023-04-21T10:41:38.361Z,19.79
2023-04-21T10:44:19.897Z,20.16
2023-04-21T10:47:01.510Z,20.09
2023-04-21T10:49:42.427Z,19.75
2023-04-21T10:52:25.201Z,19.73
2023-04-21T10:55:13.493Z,19.38
2023-04-21T10:57:53.271Z,19.38
2023-04-21T11:00:34.427Z,19.42
2023-04-21T11:03:04.855Z,19.08
2023-04-21T11:05:40.719Z,19.14
2023-04-21T11:08:23.748Z,19.27
2023-04-21T11:11:07.916Z,19.16
2023-04-21T11:13:43.905Z,19.16
2023-04-21T11:16:22.806Z,19.12
2023-04-21T11:18:58.973Z,19.18
2023-04-21T11:21:33.252Z,19.37
2023-04-21T11:24:14.985Z,19.26
2023-04-21T11:26:51.216Z,19.65
2023-04-21T11:29:29.722Z,19.94
2023-04-21T11:32:06.549Z,20.23
2023-04-21T11:34:46.612Z,20.12
2023-04-21T11:37:38.424Z,20.26
2023-04-21T11:40:13.986Z,20.04
2023-04-21T11:42:49.646Z,19.93
2023-04-21T11:45:27.876Z,19.85
2023-04-21T11:48:23.734Z,19.90
2023-04-21T11:50:58.990Z,20.08
2023-04-21T11:53:36.986Z,19.65
2023-04-21T11:56:18.126Z,19.49
2023-04-21T11:59:00.362Z,19.39
2023-04-21T12:01:30.734Z,19.24
2023-04-21T12:04:09.032Z,19.35
2023-04-21T12:06:56.479Z,19.50
2023-04-21T12:09:30.917Z,19.12
2023-04-21T12:12:06.355Z,19.30
2023-04-21T12:14:43.578Z,19.06
2023-04-21T12:17:22.012Z,19.28
2023-04-21T12:20:06.788Z,19.28
2023-04-21T12:22:44.987Z,19.07
2023-04-21T12:25:18.996Z,19.37
2023-04-21T12:28:01.975Z,19.20
2023-04-21T12:30:41.738Z,19.39
2023-04-21T12:33:23.101Z,19.33
2023-04-21T12:36:11.742Z,19.55
2023-04-21T12:38:56.756Z,19.65
2023-04-21T12:41:31.640Z,19.53
2023-04-21T12:44:09.473Z,19.65
2023-04-21T12:46:51.351Z,19.42
2023-04-21T12:49:24.209Z,19.50
2023-04-21T12:52:05.533Z,19.45
2023-04-21T12:54:44.802Z,19.37
2023-04-21T12:57:15.751Z,19.44
2023-04-21T12:59:51.520Z,19.44
2023-04-21T13:02:27.257Z,19.51
2023-04-21T13:05:06.273Z,19.41
2023-04-21T13:07:54.099Z,19.59
2023-04-21T13:10:25.506Z,19.58
2023-04-21T13:13:02.366Z,19.77
2023-04-21T13:15:38.216Z,19.90
2023-04-21T13:18:10.799Z,19.58
2023-04-21T13:20:45.256Z,19.72
2023-04-21T13:23:19.723Z,19.98
2023-04-21T13:25:57.453Z,20.05
2023-04-21T13:28:41.497Z,19.93
2023-04-21T13:31:21.835Z,20.13
2023-04-21T13:33:56.597Z,20.03
2023-04-21T13:36:34.745Z,19.74
2023-04-21T13:39:16.853Z,19.98
2023-04-21T13:41:52.229Z,20.08
2023-04-21T13:44:26.607Z,20.42
2023-04-21T13:47:08.939Z,20.47
2023-04-21T13:49:52.158Z,20.79
2023-04-21T13:52:24.375Z,20.99
2023-04-21T13:54:57.514Z,21.43
2023-04-21T13:57:48.607Z,21.77
2023-04-21T14:00:24.499Z,21.89
2023-04-21T14:03:04.916Z,22.24
2023-04-21T14:05:45.509Z,22.83
2023-04-21T14:08:29.964Z,22.95
2023-04-21T14:10:59.582Z,23.07
2023-04-21T14:13:47.787Z,23.29
2023-04-21T14:16:29.409Z,23.48
2023-04-21T14:19:05.361Z,23.53
2023-04-21T14:21:41.536Z,23.29
2023-04-21T14:24:16.831Z,23.36
2023-04-21T14:26:58.859Z,23.62
2023-04-21T14:29:40.497Z,24.10
2023-04-21T14:32:23.612Z,24.22
2023-04-21T14:35:00.196Z,24.13
2023-04-21T14:37:33.322Z,24.49
2023-04-21T14:40:14.643Z,24.60
2023-04-21T14:42:49.534Z,24.04
2023-04-21T14:45:29.514Z,23.30
2023-04-21T14:48:14.228Z,22.42
2023-04-21T14:50:49.447Z,21.78
2023-04-21T14:53:30.376Z,21.56
2023-04-21T14:56:17.158Z,21.52
2023-04-21T14:58:51.705Z,21.21
2023-04-21T15:01:26.727Z,20.90
2023-04-21T15:04:05.158Z,20.70
2023-04-21T15:06:34.958Z,21.06
2023-04-21T15:09:16.009Z,20.96
2023-04-21T15:11:50.791Z,21.39
2023-04-21T15:14:34.793Z,21.50
2023-04-21T15:17:10.120Z,21.59
2023-04-21T15:19:52.396Z,21.70
2023-04-21T15:22:34.410Z,21.60
2023-04-21T15:25:07.885Z,21.56
2023-04-21T15:27:43.075Z,21.39
2023-04-21T15:30:18.445Z,21.16
2023-04-21T15:32:53.935Z,21.06
2023-04-21T15:35:30.552Z,20.85
2023-04-21T15:38:06.621Z,20.73
2023-04-21T15:40:59.668Z,20.93
2023-04-21T15:43:38.788Z,21.54
2023-04-21T15:46:13.488Z,21.71
2023-04-21T15:48:46.648Z,21.59
2023-04-21T15:51:28.250Z,22.09
2023-04-21T15:54:04.614Z,23.13
2023-04-21T15:56:46.250Z,24.29
2023-04-21T15:59:19.499Z,24.43
2023-04-21T16:01:57.869Z,24.17
2023-04-21T16:04:36.035Z,24.01
2023-04-21T16:07:14.057Z,23.30
2023-04-21T16:09:48.647Z,23.84
2023-04-21T16:12:26.435Z,25.15
2023-04-21T16:15:20.258Z,26.21
2023-04-21T16:18:00.699Z,26.72
2023-04-21T16:20:39.724Z,26.87
2023-04-21T16:23:24.765Z,26.66
2023-04-21T16:26:02.069Z,26.03
2023-04-21T16:28:37.510Z,24.50
2023-04-21T16:31:25.577Z,24.44
2023-04-21T16:34:00.538Z,24.87
2023-04-21T16:36:33.381Z,25.66
2023-04-21T16:39:11.646Z,25.91
2023-04-21T16:41:41.604Z,26.02
2023-04-21T16:44:14.550Z,25.65
2023-04-21T16:46:54.733Z,25.51
2023-04-21T16:49:30.235Z,25.20
2023-04-21T16:52:11.429Z,24.73
2023-04-21T16:54:52.704Z,23.81
2023-04-21T16:57:30.475Z,22.75
2023-04-21T17:00:07.227Z,22.07
2023-04-21T17:02:48.746Z,21.14
2023-04-21T17:05:26.348Z,20.32
2023-04-21T17:08:04.544Z,20.01
2023-04-21T17:10:38.495Z,19.93
2023-04-21T17:13:16.189Z,19.62
2023-04-21T17:15:55.091Z,19.33
2023-04-21T17:18:32.380Z,19.30
2023-04-21T17:21:15.501Z,19.15
2023-04-21T17:23:54.511Z,18.97
2023-04-21T17:26:32.203Z,18.76
2023-04-21T17:29:11.187Z,18.60
2023-04-21T17:31:52.563Z,18.53
2023-04-21T17:34:38.537Z,18.37
2023-04-21T17:37:26.173Z,18.18
2023-04-21T17:40:12.951Z,18.02
2023-04-21T17:42:46.807Z,18.08
2023-04-21T17:45:25.461Z,17.80
2023-04-21T17:48:03.213Z,17.54
2023-04-21T17:50:36.066Z,17.28
2023-04-21T17:53:19.908Z,17.22
2023-04-21T17:56:00.677Z,17.14
2023-04-21T17:58:41.070Z,16.97
2023-04-21T18:01:25.772Z,16.87
2023-04-21T18:04:05.625Z,16.65
2023-04-21T18:06:41.332Z,16.45
2023-04-21T18:09:16.652Z,16.30
2023-04-21T18:11:52.461Z,16.29
2023-04-21T18:14:33.389Z,16.12
2023-04-21T18:17:11.542Z,15.90
2023-04-21T18:19:55.402Z,15.62
2023-04-21T18:22:30.818Z,15.41
2023-04-21T18:25:08.484Z,14.90
2023-04-21T18:27:44.922Z,14.90
2023-04-21T18:30:18.045Z,14.58
2023-04-21T18:33:03.702Z,14.29
2023-04-21T18:35:41.799Z,13.71
2023-04-21T18:38:16.655Z,13.47
2023-04-21T18:40:55.429Z,13.41
2023-04-21T18:43:34.768Z,13.47
2023-04-21T18:46:04.800Z,13.40
2023-04-21T18:48:44.974Z,13.20
2023-04-21T18:51:32.965Z,13.15
2023-04-21T18:54:12.343Z,13.03
2023-04-21T18:56:53.360Z,12.64
2023-04-21T18:59:31.464Z,12.58
2023-04-21T19:02:09.279Z,12.55
2023-04-21T19:04:50.695Z,12.31
2023-04-21T19:07:27.120Z,12.19
2023-04-21T19:10:00.777Z,11.92
2023-04-21T19:12:44.644Z,11.82
2023-04-21T19:15:18.496Z,11.86
2023-04-21T19:18:00.142Z,11.78
2023-04-21T19:20:39.538Z,11.61
2023-04-21T19:23:14.399Z,11.68
2023-04-21T19:25:57.507Z,11.31
2023-04-21T19:28:32.037Z,11.26
2023-04-21T19:31:08.753Z,11.10
2023-04-21T19:33:48.196Z,10.98
2023-04-21T19:36:29.401Z,10.88
2023-04-21T19:39:10.342Z,10.79
2023-04-21T19:41:43.837Z,10.75
2023-04-21T19:44:23.376Z,10.60
2023-04-21T19:46:59.517Z,10.57
2023-04-21T19:49:43.172Z,10.52
2023-04-21T19:52:32.392Z,10.40
2023-04-21T19:55:05.471Z,10.35
2023-04-21T19:57:48.857Z,10.25
2023-04-21T20:00:34.465Z,10.21
2023-04-21T20:03:12.300Z,10.13
2023-04-21T20:05:49.750Z,10.17
2023-04-21T20:08:23.142Z,10.10
2023-04-21T20:11:08.914Z,10.03
2023-04-21T20:13:53.477Z,10.06
2023-04-21T20:16:28.536Z,10.09
2023-04-21T20:19:05.481Z,10.04
2023-04-21T20:21:44.153Z,10.03
2023-04-21T20:24:24.904Z,9.99
2023-04-21T20:27:02.401Z,10.02
2023-04-21T20:29:43.682Z,10.00
2023-04-21T20:32:22.550Z,9.99
2023-04-21T20:35:03.121Z,9.99
2023-04-21T20:37:38.381Z,10.01
2023-04-21T20:40:15.969Z,9.99
2023-04-21T20:43:06.489Z,10.03
2023-04-21T20:45:49.654Z,10.06
2023-04-21T20:48:28.879Z,10.04
2023-04-21T20:51:05.531Z,10.05
2023-04-21T20:53:43.395Z,10.04
2023-04-21T20:56:25.144Z,10.05
2023-04-21T20:58:55.125Z,10.03
2023-04-21T21:01:38.904Z,10.07
2023-04-21T21:04:16.609Z,10.04
2023-04-21T21:06:58.453Z,10.04
2023-04-21T21:09:41.648Z,10.05
2023-04-21T21:12:17.496Z,10.03
2023-04-21T21:14:52.987Z,10.00
2023-04-21T21:17:25.889Z,10.00
2023-04-21T21:19:58.886Z,10.07
2023-04-21T21:22:34.607Z,10.03
2023-04-21T21:25:15.061Z,10.05
2023-04-21T21:27:53.110Z,10.10
2023-04-21T21:30:28.464Z,10.07
2023-04-21T21:33:10.922Z,10.13
2023-04-21T21:35:43.073Z,10.06
2023-04-21T21:38:17.596Z,10.06
2023-04-21T21:40:55.359Z,10.08
2023-04-21T21:43:33.949Z,10.03
2023-04-21T21:46:07.593Z,9.97
2023-04-21T21:48:43.501Z,9.92
2023-04-21T21:51:21.144Z,9.92
2023-04-21T21:54:01.880Z,9.92
2023-04-21T21:56:40.113Z,9.88
2023-04-21T21:59:24.535Z,9.94
2023-04-21T22:02:02.316Z,9.88
2023-04-21T22:04:38.463Z,9.85
2023-04-21T22:07:16.492Z,9.83
2023-04-21T22:09:55.481Z,9.81
2023-04-21T22:12:33.581Z,9.80
2023-04-21T22:15:08.662Z,9.72
2023-04-21T22:17:49.427Z,9.55
2023-04-21T22:20:31.024Z,9.63
2023-04-21T22:23:07.828Z,9.65
2023-04-21T22:25:52.126Z,9.60
2023-04-21T22:28:30.375Z,9.62
2023-04-21T22:31:11.116Z,9.70
2023-04-21T22:33:52.436Z,9.66
2023-04-21T22:36:39.424Z,9.67
2023-04-21T22:39:12.709Z,9.64
2023-04-21T22:41:53.282Z,9.64
2023-04-21T22:44:31.432Z,9.53
2023-04-21T22:47:09.672Z,9.56
2023-04-21T22:49:48.085Z,9.63
2023-04-21T22:52:21.496Z,9.64
2023-04-21T22:54:59.249Z,9.63
2023-04-21T22:57:36.515Z,9.74
2023-04-21T23:00:17.042Z,9.59
2023-04-21T23:02:58.467Z,9.76
2023-04-21T23:05:38.667Z,9.98
2023-04-21T23:08:19.948Z,9.87
2023-04-21T23:11:06.529Z,9.68
2023-04-21T23:13:38.403Z,9.66
2023-04-21T23:16:11.575Z,9.65
2023-04-21T23:18:47.080Z,9.62
2023-04-21T23:21:20.776Z,9.49
2023-04-21T23:23:56.175Z,9.57
2023-04-21T23:26:28.630Z,9.63
2023-04-21T23:29:06.808Z,9.62
2023-04-21T23:31:44.727Z,9.59
2023-04-21T23:34:17.061Z,9.62
2023-04-21T23:36:56.547Z,9.58
2023-04-21T23:39:50.530Z,9.49
2023-04-21T23:42:28.245Z,9.50
2023-04-21T23:45:05.142Z,9.54
2023-04-21T23:47:49.199Z,9.54
2023-04-21T23:50:24.698Z,9.42
2023-04-21T23:53:08.523Z,9.45
2023-04-21T23:55:46.275Z,9.54
2023-04-21T23:58:21.646Z,9.51
